Time;durP1;ratioP1;P1;durP2;ratioP2;P2;SDS_P1;SDS_P2;PMS_P1;PMS_P2;Temp;Humidity;BMP_temperature;BMP_pressure;BME280_temperature;BME280_humidity;BME280_pressure;Samples;Min_cycle;Max_cycle;Signal;HPM_P1;HPM_P2
2021/07/31 00:01:01;;;;;;;8.63;7.10;;;20.50;99.90;;;;;;5055397;28;20450;-82
2021/07/31 00:03:27;;;;;;;6.30;5.80;;;20.40;99.90;;;;;;5050003;28;20517;-81
2021/07/31 00:05:54;;;;;;;8.63;6.47;;;20.40;99.90;;;;;;5048225;28;20489;-81
2021/07/31 00:08:21;;;;;;;9.77;6.50;;;20.40;99.90;;;;;;5047030;28;20534;-80
2021/07/31 00:10:49;;;;;;;6.63;5.97;;;20.40;99.90;;;;;;5050625;28;20439;-82
2021/07/31 00:13:16;;;;;;;7.30;6.00;;;20.40;99.90;;;;;;5059852;28;20455;-79
2021/07/31 00:15:43;;;;;;;9.00;6.27;;;20.50;99.90;;;;;;5057068;28;20439;-79
2021/07/31 00:18:10;;;;;;;8.13;6.53;;;20.60;99.90;;;;;;5053307;28;20453;-80
2021/07/31 00:20:36;;;;;;;6.30;5.70;;;20.60;99.90;;;;;;5051436;28;20446;-82
2021/07/31 00:23:03;;;;;;;8.57;4.80;;;20.60;99.90;;;;;;5043048;28;20466;-82
2021/07/31 00:25:30;;;;;;;10.50;6.10;;;20.60;99.90;;;;;;5043761;28;20221;-81
2021/07/31 00:27:58;;;;;;;5.43;4.83;;;20.60;99.90;;;;;;5054519;28;20509;-83
2021/07/31 00:30:26;;;;;;;5.70;5.13;;;20.50;99.90;;;;;;5047441;28;20826;-82
2021/07/31 00:32:53;;;;;;;6.03;5.53;;;20.50;99.90;;;;;;5047390;28;20516;-82
2021/07/31 00:35:21;;;;;;;6.20;5.57;;;20.40;99.90;;;;;;5046235;28;20455;-81
2021/07/31 00:37:48;;;;;;;10.30;6.27;;;20.40;99.90;;;;;;5046704;28;20454;-82
2021/07/31 00:40:15;;;;;;;6.40;5.77;;;20.40;99.90;;;;;;5048610;28;20451;-81
2021/07/31 00:42:43;;;;;;;5.10;4.60;;;20.40;99.90;;;;;;5057015;28;20848;-83
2021/07/31 00:45:12;;;;;;;4.97;4.50;;;20.40;99.90;;;;;;5047874;28;20940;-82
2021/07/31 00:47:41;;;;;;;6.03;5.30;;;20.30;99.90;;;;;;5049296;28;20455;-82
2021/07/31 00:50:08;;;;;;;10.87;5.90;;;20.30;99.90;;;;;;5046386;28;20482;-82
2021/07/31 00:52:36;;;;;;;10.57;5.43;;;20.30;99.90;;;;;;5047682;28;20466;-82
2021/07/31 00:55:04;;;;;;;7.93;5.70;;;20.30;99.90;;;;;;5040315;28;20489;-82
2021/07/31 00:57:32;;;;;;;6.10;5.60;;;20.30;99.90;;;;;;5043463;28;20478;-81
2021/07/31 00:59:59;;;;;;;6.43;4.53;;;20.20;99.90;;;;;;5041393;28;20501;-81
2021/07/31 01:02:27;;;;;;;5.70;5.10;;;20.50;99.90;;;;;;5040388;28;20455;-81
2021/07/31 01:04:53;;;;;;;6.73;5.60;;;20.20;99.90;;;;;;5040744;28;20510;-83
2021/07/31 01:07:20;;;;;;;7.07;5.00;;;20.20;99.90;;;;;;5040157;28;20501;-81
2021/07/31 01:09:47;;;;;;;4.90;4.40;;;20.20;99.90;;;;;;5039383;28;20953;-82
2021/07/31 01:12:14;;;;;;;8.53;5.03;;;20.10;99.90;;;;;;5040049;28;20443;-82
2021/07/31 01:14:41;;;;;;;5.50;4.93;;;20.00;99.90;;;;;;5039687;28;20494;-81
2021/07/31 01:17:11;;;;;;;5.63;5.13;;;20.00;99.90;;;;;;5039315;28;20804;-82
2021/07/31 01:19:39;;;;;;;5.70;5.07;;;20.00;99.90;;;;;;5041914;28;20439;-81
2021/07/31 01:22:08;;;;;;;6.70;5.70;;;19.90;99.90;;;;;;5039699;28;20455;-82
2021/07/31 01:24:35;;;;;;;5.73;5.23;;;19.90;99.90;;;;;;5039766;28;20469;-82
2021/07/31 01:27:02;;;;;;;8.50;4.60;;;19.80;99.90;;;;;;5047301;28;20462;-82
2021/07/31 01:29:28;;;;;;;7.57;5.20;;;19.70;99.90;;;;;;5059334;28;20438;-80
2021/07/31 01:31:55;;;;;;;10.90;5.40;;;19.70;99.90;;;;;;5059058;28;20439;-81
2021/07/31 01:34:21;;;;;;;7.83;5.20;;;19.70;99.90;;;;;;5052126;28;20467;-81
2021/07/31 01:36:48;;;;;;;7.60;5.63;;;19.70;99.90;;;;;;5059084;28;20435;-83
2021/07/31 01:39:16;;;;;;;7.50;4.67;;;19.70;99.90;;;;;;5057577;28;20431;-81
2021/07/31 01:41:43;;;;;;;6.70;5.33;;;19.60;99.90;;;;;;5047356;28;20525;-82
2021/07/31 01:44:11;;;;;;;5.20;4.80;;;19.60;99.90;;;;;;5038972;28;20506;-82
2021/07/31 01:46:37;;;;;;;17.23;6.20;;;19.60;99.90;;;;;;5041826;28;20479;-81
2021/07/31 01:49:04;;;;;;;7.13;5.80;;;19.70;99.90;;;;;;5039899;28;20478;-83
2021/07/31 01:51:30;;;;;;;5.73;5.27;;;19.60;99.90;;;;;;5039699;28;20490;-82
2021/07/31 01:53:58;;;;;;;5.83;4.80;;;19.70;99.90;;;;;;5038534;28;20473;-81
2021/07/31 01:56:26;;;;;;;5.70;5.20;;;19.70;99.90;;;;;;5038829;28;20451;-82
2021/07/31 01:58:53;;;;;;;6.20;5.60;;;19.70;99.90;;;;;;5040019;28;20432;-81
2021/07/31 02:01:20;;;;;;;5.63;5.13;;;19.70;99.90;;;;;;5040979;28;20489;-82
2021/07/31 02:03:46;;;;;;;7.53;5.20;;;19.80;99.90;;;;;;5045355;28;20467;-81
2021/07/31 02:06:13;;;;;;;11.70;5.60;;;19.80;99.90;;;;;;5046538;28;20855;-81
2021/07/31 02:08:39;;;;;;;6.40;5.33;;;19.80;99.90;;;;;;5050176;28;20444;-81
2021/07/31 02:11:06;;;;;;;5.93;4.90;;;20.10;99.90;;;;;;5052688;28;20470;-80
2021/07/31 02:13:34;;;;;;;8.33;5.37;;;19.80;99.90;;;;;;5050077;28;20463;-81
2021/07/31 02:16:00;;;;;;;5.90;4.53;;;19.80;99.90;;;;;;5039523;28;20860;-81
2021/07/31 02:18:27;;;;;;;5.57;5.03;;;19.80;99.90;;;;;;5039809;28;20447;-82
2021/07/31 02:20:53;;;;;;;8.47;5.27;;;19.80;99.90;;;;;;5039759;28;20513;-82
2021/07/31 02:23:20;;;;;;;5.73;5.13;;;19.90;99.90;;;;;;5037992;28;20478;-80
2021/07/31 02:25:46;;;;;;;9.15;6.03;;;19.90;99.90;;;;;;5038504;28;21074;-81
2021/07/31 02:28:13;;;;;;;8.80;6.67;;;20.00;99.90;;;;;;5037869;28;20236;-80
2021/07/31 02:30:41;;;;;;;9.07;4.80;;;20.00;99.90;;;;;;5040722;28;20482;-81
2021/07/31 02:33:07;;;;;;;5.90;5.37;;;20.00;99.90;;;;;;5038520;28;20471;-81
2021/07/31 02:35:34;;;;;;;8.60;5.27;;;20.10;99.90;;;;;;5037893;28;20447;-81
2021/07/31 02:38:02;;;;;;;5.50;5.00;;;20.10;99.90;;;;;;5038981;28;20447;-81
2021/07/31 02:40:29;;;;;;;7.03;4.67;;;20.20;99.90;;;;;;5051449;28;20500;-81
2021/07/31 02:42:55;;;;;;;5.53;5.03;;;20.20;99.90;;;;;;5054145;28;20510;-80
2021/07/31 02:45:22;;;;;;;5.33;4.77;;;20.40;99.90;;;;;;5056583;28;20467;-79
2021/07/31 02:47:51;;;;;;;7.27;4.93;;;20.20;99.90;;;;;;5050103;28;20464;-80
2021/07/31 02:50:17;;;;;;;6.47;4.60;;;20.30;99.90;;;;;;5050507;28;20454;-80
2021/07/31 02:52:44;;;;;;;4.87;4.53;;;20.30;99.90;;;;;;5051436;28;20471;-79
2021/07/31 02:55:11;;;;;;;6.77;4.27;;;20.20;99.90;;;;;;5050668;28;20461;-79
2021/07/31 02:57:38;;;;;;;4.77;4.27;;;20.30;99.90;;;;;;5050585;28;20509;-79
2021/07/31 03:00:06;;;;;;;4.23;3.83;;;20.20;99.90;;;;;;5051750;28;20447;-79
2021/07/31 03:02:32;;;;;;;5.40;3.70;;;20.30;99.90;;;;;;5052235;28;20474;-79
2021/07/31 03:05:00;;;;;;;6.13;3.40;;;20.30;99.90;;;;;;5052027;28;20460;-79
2021/07/31 03:07:27;;;;;;;7.67;3.93;;;20.20;99.90;;;;;;5057210;28;20431;-80
2021/07/31 03:09:53;;;;;;;4.23;3.67;;;20.30;99.90;;;;;;5055547;28;20464;-82
2021/07/31 03:12:20;;;;;;;4.47;3.60;;;20.20;99.90;;;;;;5056649;28;20442;-81
2021/07/31 03:14:47;;;;;;;8.03;3.80;;;20.20;99.90;;;;;;5053485;28;20852;-82
2021/07/31 03:17:16;;;;;;;3.70;3.40;;;20.20;99.90;;;;;;5054764;28;20426;-80
2021/07/31 03:19:43;;;;;;;3.50;3.20;;;20.20;99.90;;;;;;5052880;28;20458;-79
2021/07/31 03:22:11;;;;;;;4.13;3.43;;;20.10;99.90;;;;;;5046492;28;20442;-79
2021/07/31 03:24:37;;;;;;;5.17;3.33;;;20.10;99.90;;;;;;5048446;28;20443;-82
2021/07/31 03:27:05;;;;;;;3.50;3.20;;;20.10;99.90;;;;;;5054541;28;20479;-81
2021/07/31 03:29:33;;;;;;;4.03;3.70;;;20.00;99.90;;;;;;5056181;28;20513;-81
2021/07/31 03:32:00;;;;;;;2.80;2.60;;;20.10;99.90;;;;;;5054553;28;20454;-81
2021/07/31 03:34:26;;;;;;;3.07;2.77;;;20.10;99.90;;;;;;5046448;28;20467;-82
2021/07/31 03:36:53;;;;;;;3.33;3.00;;;20.00;99.90;;;;;;5049482;28;20448;-82
2021/07/31 03:39:25;;;;;;;3.50;3.20;;;20.00;99.90;;;;;;5047337;28;20477;-81
2021/07/31 03:41:54;;;;;;;7.10;4.23;;;20.00;99.90;;;;;;5043836;28;20435;-81
2021/07/31 03:44:20;;;;;;;6.73;3.60;;;19.90;99.90;;;;;;5038136;28;20558;-81
2021/07/31 03:46:49;;;;;;;11.30;8.50;;;19.90;99.90;;;;;;5035374;28;20483;-80
2021/07/31 03:49:16;;;;;;;5.03;3.33;;;19.80;99.90;;;;;;5035900;28;20509;-79
2021/07/31 03:51:43;;;;;;;8.53;7.07;;;19.80;99.90;;;;;;5035433;28;20453;-81
2021/07/31 03:54:10;;;;;;;5.33;3.73;;;19.80;99.90;;;;;;5037693;28;20876;-82
2021/07/31 03:56:38;;;;;;;4.20;3.80;;;19.70;99.90;;;;;;5039359;28;20534;-82
2021/07/31 03:59:05;;;;;;;3.70;3.25;;;19.70;99.90;;;;;;5040819;28;20446;-81
2021/07/31 04:01:31;;;;;;;3.50;3.13;;;19.60;99.90;;;;;;5041057;28;20200;-81
2021/07/31 04:03:58;;;;;;;6.20;3.13;;;19.60;99.90;;;;;;5038813;28;20467;-81
2021/07/31 04:06:24;;;;;;;7.60;4.80;;;19.50;99.90;;;;;;5038771;28;20518;-81
2021/07/31 04:08:51;;;;;;;6.33;5.73;;;19.60;99.90;;;;;;5041592;28;20961;-81
2021/07/31 04:11:17;;;;;;;35.37;23.07;;;19.50;99.90;;;;;;5043394;28;20431;-81
2021/07/31 04:13:45;;;;;;;3.77;3.40;;;19.60;99.90;;;;;;5043824;28;20497;-80
2021/07/31 04:16:12;;;;;;;3.30;2.77;;;19.60;99.90;;;;;;5045018;28;20435;-80
2021/07/31 04:18:38;;;;;;;3.10;2.90;;;19.60;99.90;;;;;;5048318;28;20455;-82
2021/07/31 04:21:07;;;;;;;5.33;4.30;;;19.70;99.90;;;;;;5051306;28;20447;-81
2021/07/31 04:23:33;;;;;;;3.93;3.10;;;19.60;99.90;;;;;;5040974;28;20513;-81
2021/07/31 04:26:00;;;;;;;3.30;2.77;;;19.60;99.90;;;;;;5039268;28;20523;-82
2021/07/31 04:28:26;;;;;;;20.90;14.97;;;19.50;99.90;;;;;;5038506;28;20482;-82
2021/07/31 04:30:54;;;;;;;27.43;3.57;;;19.60;99.90;;;;;;5038376;28;20451;-82
2021/07/31 04:33:21;;;;;;;3.87;3.23;;;19.60;99.90;;;;;;5039013;28;20525;-81
2021/07/31 04:35:47;;;;;;;4.50;3.20;;;19.60;99.90;;;;;;5040435;28;20492;-80
2021/07/31 04:38:14;;;;;;;3.30;2.70;;;19.60;99.90;;;;;;5042779;28;20447;-82
2021/07/31 04:40:41;;;;;;;2.60;2.40;;;19.50;99.90;;;;;;5051546;28;20450;-82
2021/07/31 04:43:07;;;;;;;3.60;2.90;;;19.60;99.90;;;;;;5056073;28;20498;-82
2021/07/31 04:45:34;;;;;;;3.20;2.80;;;19.60;99.90;;;;;;5059706;28;20867;-80
2021/07/31 04:48:02;;;;;;;3.93;2.80;;;19.60;99.90;;;;;;5058806;28;20449;-81
2021/07/31 04:50:29;;;;;;;4.53;4.13;;;19.60;99.90;;;;;;5059735;28;20446;-82
2021/07/31 04:52:55;;;;;;;4.00;2.57;;;19.60;99.90;;;;;;5057465;28;20443;-82
2021/07/31 04:55:22;;;;;;;3.93;3.10;;;19.60;99.90;;;;;;5056150;28;20501;-81
2021/07/31 04:57:49;;;;;;;5.73;3.30;;;19.60;99.90;;;;;;5050703;28;20950;-82
2021/07/31 05:00:16;;;;;;;5.07;2.53;;;19.70;99.90;;;;;;5043494;28;20443;-82
2021/07/31 05:02:42;;;;;;;2.57;2.20;;;19.80;99.90;;;;;;5044324;28;20502;-82
2021/07/31 05:05:11;;;;;;;3.63;3.07;;;19.80;99.90;;;;;;5049039;28;20443;-82
2021/07/31 05:07:37;;;;;;;2.53;2.33;;;19.70;99.90;;;;;;5055362;28;20466;-82
2021/07/31 05:10:05;;;;;;;2.10;1.90;;;19.80;99.90;;;;;;5053035;28;20447;-82
2021/07/31 05:12:32;;;;;;;5.67;2.83;;;19.80;99.90;;;;;;5048945;28;20470;-82
2021/07/31 05:14:59;;;;;;;2.90;2.70;;;19.80;99.90;;;;;;5041437;28;20451;-82
2021/07/31 05:17:25;;;;;;;8.87;2.63;;;19.80;99.90;;;;;;5041367;28;20775;-82
2021/07/31 05:19:53;;;;;;;2.53;1.90;;;19.90;99.90;;;;;;5043580;28;20450;-82
2021/07/31 05:22:20;;;;;;;4.40;4.00;;;19.90;99.90;;;;;;5054642;28;20433;-82
2021/07/31 05:24:53;;;;;;;3.40;2.87;;;19.90;99.90;;;;;;5048767;28;20446;-81
2021/07/31 05:27:19;;;;;;;3.67;3.17;;;20.00;99.90;;;;;;5050488;28;20471;-82
2021/07/31 05:29:46;;;;;;;2.60;2.20;;;19.90;99.90;;;;;;5055700;28;20512;-82
2021/07/31 05:32:13;;;;;;;4.57;3.33;;;19.90;99.90;;;;;;5050766;28;20459;-82
2021/07/31 05:34:39;;;;;;;4.40;2.97;;;19.90;99.90;;;;;;5044263;28;20471;-83
2021/07/31 05:37:06;;;;;;;5.33;2.87;;;19.90;99.90;;;;;;5041460;28;20447;-83
2021/07/31 05:39:35;;;;;;;2.80;2.00;;;20.00;99.90;;;;;;5042816;28;20447;-82
2021/07/31 05:42:04;;;;;;;2.13;1.90;;;20.00;99.90;;;;;;5042822;28;20465;-83
2021/07/31 05:44:32;;;;;;;2.83;2.47;;;20.00;99.90;;;;;;5073879;22;20510;-84
2021/07/31 05:46:58;;;;;;;3.20;2.10;;;20.00;99.90;;;;;;5056485;28;20483;-84
2021/07/31 05:49:25;;;;;;;3.00;1.80;;;20.00;99.90;;;;;;5054527;28;20497;-84
2021/07/31 05:51:51;;;;;;;3.90;2.47;;;20.00;99.90;;;;;;5046682;28;20451;-84
2021/07/31 05:54:18;;;;;;;3.70;2.20;;;20.10;99.90;;;;;;5044860;28;20463;-84
2021/07/31 05:56:46;;;;;;;3.13;2.10;;;20.10;99.90;;;;;;5045559;28;20423;-84
2021/07/31 05:59:12;;;;;;;1.90;1.80;;;20.30;99.90;;;;;;5045179;28;20451;-84
2021/07/31 06:01:39;;;;;;;2.90;1.60;;;20.30;99.90;;;;;;5049444;28;20440;-83
2021/07/31 06:04:05;;;;;;;1.77;1.67;;;20.30;99.90;;;;;;5045803;28;20489;-84
2021/07/31 06:06:33;;;;;;;2.30;2.10;;;20.20;99.90;;;;;;5046715;28;20479;-84
2021/07/31 06:09:00;;;;;;;2.27;1.47;;;20.20;99.90;;;;;;5046831;28;20478;-85
2021/07/31 06:11:27;;;;;;;1.93;1.60;;;20.40;99.90;;;;;;5047363;28;20442;-83
2021/07/31 06:13:55;;;;;;;4.67;1.90;;;20.40;99.90;;;;;;5044466;28;20470;-84
2021/07/31 06:16:21;;;;;;;3.70;2.20;;;20.40;99.90;;;;;;5043033;28;20439;-83
2021/07/31 06:18:48;;;;;;;1.87;1.70;;;20.40;99.90;;;;;;5047029;28;20466;-83
2021/07/31 06:21:20;;;;;;;2.17;1.73;;;20.40;99.90;;;;;;5043725;28;20459;-85
2021/07/31 06:23:47;;;;;;;4.20;1.50;;;;;;;;;;5052076;28;20234;-83
2021/07/31 06:26:14;;;;;;;5.00;3.60;;;20.50;99.90;;;;;;5047766;28;20451;-85
2021/07/31 06:28:41;;;;;;;2.60;2.37;;;;;;;;;;5046581;28;20486;-84
2021/07/31 06:31:09;;;;;;;4.40;2.60;;;20.60;99.90;;;;;;5049024;28;20451;-84
2021/07/31 06:33:36;;;;;;;13.20;3.33;;;20.70;99.90;;;;;;5043988;28;20463;-83
2021/07/31 06:36:05;;;;;;;4.10;2.20;;;20.80;99.90;;;;;;5048310;28;20519;-84
2021/07/31 06:38:32;;;;;;;3.70;1.73;;;20.80;99.90;;;;;;5050035;28;20510;-84
2021/07/31 06:40:59;;;;;;;1.87;1.77;;;20.80;99.90;;;;;;5056183;28;20435;-83
2021/07/31 06:43:25;;;;;;;2.93;1.73;;;20.90;99.90;;;;;;5057665;28;20502;-84
2021/07/31 06:45:53;;;;;;;2.83;2.10;;;21.00;99.90;;;;;;5056290;28;20458;-83
2021/07/31 06:48:21;;;;;;;6.87;1.90;;;21.00;99.90;;;;;;5055938;28;20557;-83
2021/07/31 06:50:47;;;;;;;4.37;2.07;;;21.00;99.90;;;;;;5057459;28;20934;-83
2021/07/31 06:53:14;;;;;;;3.23;2.00;;;21.00;99.90;;;;;;5057657;28;20447;-83
2021/07/31 06:55:44;;;;;;;2.43;1.70;;;21.00;99.90;;;;;;5058121;28;20434;-82
2021/07/31 06:58:11;;;;;;;1.63;1.27;;;21.10;99.90;;;;;;5057582;28;20465;-85
2021/07/31 07:00:38;;;;;;;3.20;1.93;;;;;;;;;;5056333;28;20454;-84
2021/07/31 07:03:05;;;;;;;1.77;1.67;;;;;;;;;;5054530;28;20842;-85
2021/07/31 07:05:34;;;;;;;3.37;1.60;;;21.20;99.90;;;;;;5044436;28;20450;-84
2021/07/31 07:08:01;;;;;;;3.73;1.27;;;21.30;99.90;;;;;;5047665;28;20471;-85
2021/07/31 07:10:27;;;;;;;3.53;1.63;;;21.20;99.90;;;;;;5042727;28;20463;-84
2021/07/31 07:12:54;;;;;;;2.28;1.70;;;21.30;99.90;;;;;;5039077;28;20474;-84
2021/07/31 07:15:21;;;;;;;2.97;1.37;;;21.20;99.90;;;;;;5038733;28;20211;-84
2021/07/31 07:17:50;;;;;;;2.25;2.08;;;21.20;99.90;;;;;;5041318;28;20438;-84
2021/07/31 07:20:18;;;;;;;3.40;1.20;;;21.10;99.90;;;;;;5042126;28;20204;-85
2021/07/31 07:22:50;;;;;;;1.85;1.50;;;21.40;99.90;;;;;;5041990;28;20443;-83
2021/07/31 07:25:17;;;;;;;2.80;1.33;;;;;;;;;;5041627;28;20450;-84
2021/07/31 07:27:44;;;;;;;2.80;1.60;;;21.50;99.90;;;;;;5056921;28;20474;-85
2021/07/31 07:30:12;;;;;;;3.37;1.67;;;21.60;99.90;;;;;;5054488;28;20485;-83
2021/07/31 07:32:39;;;;;;;2.40;1.67;;;21.90;99.90;;;;;;5052384;28;20456;-85
2021/07/31 07:35:09;;;;;;;3.87;3.10;;;21.50;99.90;;;;;;5055490;28;20443;-83
2021/07/31 07:37:36;;;;;;;2.60;1.53;;;21.60;99.90;;;;;;5046740;28;20492;-84
2021/07/31 07:40:05;;;;;;;3.70;1.80;;;21.70;99.90;;;;;;5051672;28;20434;-83
2021/07/31 07:42:34;;;;;;;2.30;1.27;;;21.40;99.90;;;;;;5045449;28;20994;-83
2021/07/31 07:45:01;;;;;;;2.70;1.67;;;21.50;99.90;;;;;;5047949;28;20466;-83
2021/07/31 07:47:27;;;;;;;3.30;1.53;;;21.60;99.90;;;;;;5057907;28;20503;-84
2021/07/31 07:49:56;;;;;;;2.13;1.93;;;21.70;99.90;;;;;;5054839;28;20452;-83
2021/07/31 07:52:23;;;;;;;4.30;2.30;;;21.70;99.90;;;;;;5054639;28;20458;-84
2021/07/31 07:54:49;;;;;;;3.07;1.33;;;21.70;99.90;;;;;;5041262;28;20569;-84
2021/07/31 07:57:18;;;;;;;4.33;1.70;;;21.80;99.90;;;;;;5039505;28;20442;-83
2021/07/31 07:59:45;;;;;;;3.53;1.93;;;21.80;99.90;;;;;;5039095;28;20946;-83
2021/07/31 08:02:11;;;;;;;1.87;1.20;;;21.80;99.90;;;;;;5039785;28;20574;-84
2021/07/31 08:04:38;;;;;;;2.80;1.40;;;21.90;99.90;;;;;;5039610;28;20844;-83
2021/07/31 08:07:05;;;;;;;1.40;1.30;;;21.90;99.90;;;;;;5040034;28;20577;-85
2021/07/31 08:09:32;;;;;;;1.80;1.40;;;21.90;99.90;;;;;;5040003;28;20469;-85
2021/07/31 08:11:58;;;;;;;2.80;1.50;;;21.90;99.90;;;;;;5040688;28;20509;-83
2021/07/31 08:14:26;;;;;;;6.40;2.63;;;22.00;99.90;;;;;;5044129;28;20521;-83
2021/07/31 08:16:57;;;;;;;1.80;1.60;;;22.10;99.90;;;;;;5040715;28;20513;-82
2021/07/31 08:19:29;;;;;;;3.50;1.80;;;22.30;99.90;;;;;;5040707;28;20811;-84
2021/07/31 08:21:56;;;;;;;4.70;1.40;;;22.30;99.90;;;;;;5045446;28;20432;-83
2021/07/31 08:24:23;;;;;;;2.93;1.20;;;22.40;99.90;;;;;;5055414;28;20459;-83
2021/07/31 08:26:50;;;;;;;2.47;1.20;;;22.50;99.90;;;;;;5056452;28;20458;-83
2021/07/31 08:29:17;;;;;;;1.93;1.27;;;22.50;99.90;;;;;;5056621;28;20443;-83
2021/07/31 08:31:45;;;;;;;1.90;1.70;;;22.60;99.90;;;;;;5054520;28;20439;-83
2021/07/31 08:34:15;;;;;;;5.13;1.70;;;22.70;99.90;;;;;;5058436;28;20551;-84
2021/07/31 08:36:42;;;;;;;3.30;2.17;;;22.70;99.90;;;;;;5058965;28;20427;-84
2021/07/31 08:39:09;;;;;;;1.30;1.20;;;22.60;99.90;;;;;;5058109;28;20434;-83
2021/07/31 08:41:36;;;;;;;2.97;1.30;;;22.20;99.90;;;;;;5052146;28;20501;-84
2021/07/31 08:44:11;;;;;;;2.60;1.37;;;22.10;99.90;;;;;;5049197;28;20498;-84
2021/07/31 08:46:38;;;;;;;4.00;1.70;;;22.20;99.90;;;;;;5058624;28;20431;-83
2021/07/31 08:49:06;;;;;;;2.63;1.30;;;22.20;99.90;;;;;;5049300;28;20509;-85
2021/07/31 08:51:35;;;;;;;1.43;1.23;;;22.10;99.90;;;;;;5056734;28;20435;-84
2021/07/31 08:54:02;;;;;;;2.00;1.60;;;;;;;;;;5055715;28;20891;-85
2021/07/31 08:56:29;;;;;;;1.93;1.70;;;22.50;99.90;;;;;;5057795;28;20447;-85
2021/07/31 08:58:59;;;;;;;2.30;2.10;;;22.20;99.90;;;;;;5047227;28;20467;-84
2021/07/31 09:01:26;;;;;;;2.30;1.30;;;22.40;99.90;;;;;;5044221;28;20450;-86
2021/07/31 09:03:54;;;;;;;3.03;1.77;;;22.50;99.90;;;;;;5044410;28;20489;-83
2021/07/31 09:06:32;;;;;;;2.70;1.93;;;22.60;99.90;;;;;;5045229;28;20448;-83
2021/07/31 09:09:00;;;;;;;9.23;2.17;;;22.50;99.90;;;;;;5044538;28;20467;-84
2021/07/31 09:11:27;;;;;;;2.73;2.17;;;22.30;99.90;;;;;;5043552;28;20454;-84
2021/07/31 09:14:09;;;;;;;4.37;2.10;;;22.40;99.90;;;;;;5042694;28;20471;-85
2021/07/31 09:16:36;;;;;;;2.90;2.20;;;22.50;99.90;;;;;;5041988;28;20427;-84
2021/07/31 09:19:05;;;;;;;2.90;2.60;;;22.70;99.90;;;;;;5043077;28;20447;-84
2021/07/31 09:21:33;;;;;;;4.50;1.83;;;22.90;99.90;;;;;;5040955;28;20465;-84
2021/07/31 09:23:59;;;;;;;3.10;1.80;;;23.00;99.90;;;;;;5047099;28;20458;-84
2021/07/31 09:26:31;;;;;;;2.53;1.60;;;23.20;99.90;;;;;;5041251;28;20938;-84
2021/07/31 09:29:00;;;;;;;6.20;2.90;;;23.10;99.90;;;;;;5041129;28;20471;-84
2021/07/31 09:31:28;;;;;;;3.67;1.37;;;23.10;99.90;;;;;;5043862;28;20469;-83
2021/07/31 09:33:56;;;;;;;2.40;1.77;;;22.90;99.90;;;;;;5041011;28;21004;-85
2021/07/31 09:36:23;;;;;;;4.73;2.73;;;22.80;99.90;;;;;;5045179;28;20462;-84
2021/07/31 09:38:51;;;;;;;3.57;2.07;;;22.80;99.90;;;;;;5043309;28;20443;-84
2021/07/31 09:41:36;;;;;;;3.93;1.90;;;22.80;99.90;;;;;;5043642;28;20865;-85
2021/07/31 09:44:06;;;;;;;5.43;1.60;;;22.70;99.90;;;;;;5044616;28;20478;-84
2021/07/31 09:46:34;;;;;;;2.70;2.00;;;22.70;99.90;;;;;;5043963;28;20439;-85
2021/07/31 09:49:01;;;;;;;2.60;1.27;;;22.80;99.90;;;;;;5048691;28;20478;-84
2021/07/31 09:51:38;;;;;;;2.57;2.00;;;23.00;99.90;;;;;;5048377;28;20470;-84
2021/07/31 09:54:09;;;;;;;4.30;2.73;;;23.10;99.90;;;;;;5045411;28;20458;-85
2021/07/31 09:56:45;;;;;;;1.77;1.50;;;23.20;99.90;;;;;;5040367;28;20435;-84
2021/07/31 09:59:16;;;;;;;3.20;1.60;;;23.40;99.90;;;;;;5040735;28;20432;-84
2021/07/31 10:01:45;;;;;;;2.13;1.90;;;23.20;99.90;;;;;;5042630;28;20443;-84
2021/07/31 10:04:15;;;;;;;2.73;1.47;;;23.10;99.90;;;;;;5041327;28;20471;-84
2021/07/31 10:06:45;;;;;;;4.40;1.37;;;23.20;99.90;;;;;;5040169;28;20439;-84
2021/07/31 10:09:15;;;;;;;2.20;1.60;;;23.30;99.90;;;;;;5039615;28;20475;-84
2021/07/31 10:11:44;;;;;;;5.37;1.80;;;23.50;99.90;;;;;;5042962;28;20432;-85
2021/07/31 10:14:16;;;;;;;6.90;1.77;;;23.60;99.90;;;;;;5045174;28;20501;-84
2021/07/31 10:16:51;;;;;;;1.50;1.30;;;23.80;99.90;;;;;;5047515;28;20441;-85
2021/07/31 10:19:21;;;;;;;1.90;1.67;;;23.80;99.90;;;;;;5044041;28;20455;-85
2021/07/31 10:21:58;;;;;;;4.30;2.17;;;23.90;99.90;;;;;;5041797;28;20479;-84
2021/07/31 10:24:49;;;;;;;1.90;1.63;;;23.90;99.90;;;;;;5041565;28;20485;-81
2021/07/31 10:27:25;;;;;;;2.80;1.60;;;23.80;99.90;;;;;;5043572;28;20451;-83
2021/07/31 10:29:56;;;;;;;1.50;1.40;;;23.90;99.90;;;;;;5048499;28;20451;-83
2021/07/31 10:32:46;;;;;;;2.60;1.50;;;23.70;99.90;;;;;;5046450;28;20550;-81
2021/07/31 10:35:44;;;;;;;3.07;1.53;;;23.40;99.90;;;;;;5045539;28;20466;-84
2021/07/31 10:38:33;;;;;;;4.20;1.63;;;23.40;99.90;;;;;;5009011;28;20473;-84
2021/07/31 10:41:03;;;;;;;2.60;2.03;;;23.50;99.90;;;;;;5042765;28;20446;-84
2021/07/31 10:43:32;;;;;;;1.70;1.60;;;23.60;99.90;;;;;;5041630;28;20812;-83
2021/07/31 10:46:24;;;;;;;4.00;1.50;;;23.60;99.90;;;;;;5041182;28;20460;-82
2021/07/31 10:48:56;;;;;;;3.60;1.47;;;23.40;99.90;;;;;;5042286;28;20471;-83
2021/07/31 10:51:42;;;;;;;3.90;2.23;;;23.10;99.90;;;;;;5041380;28;20448;-83
2021/07/31 10:54:09;;;;;;;7.87;2.13;;;23.10;99.90;;;;;;5045448;28;20465;-82
2021/07/31 10:56:56;;;;;;;3.20;2.50;;;23.20;99.90;;;;;;5048958;28;20449;-83
2021/07/31 10:59:23;;;;;;;2.30;1.97;;;23.10;99.90;;;;;;5046603;28;20469;-83
2021/07/31 11:01:50;;;;;;;2.80;1.40;;;23.10;99.90;;;;;;5047969;28;20466;-83
2021/07/31 11:04:55;;;;;;;3.80;1.40;;;23.20;99.90;;;;;;5052088;28;20451;-83
2021/07/31 11:07:25;;;;;;;1.10;1.00;;;23.10;99.90;;;;;;5050794;28;20427;-82
2021/07/31 11:10:30;;;;;;;3.03;1.60;;;22.80;99.90;;;;;;5050255;28;20516;-83
2021/07/31 11:12:58;;;;;;;2.70;1.30;;;22.60;99.90;;;;;;5042478;28;20466;-83
2021/07/31 11:15:25;;;;;;;5.60;1.37;;;22.70;99.90;;;;;;5042264;28;20451;-83
2021/07/31 11:17:59;;;;;;;2.27;1.50;;;22.90;99.90;;;;;;5042876;28;20447;-85
2021/07/31 11:20:28;;;;;;;6.00;2.50;;;23.20;99.90;;;;;;5042537;28;20448;-84
2021/07/31 11:22:55;;;;;;;4.13;1.90;;;23.50;99.90;;;;;;5044667;28;20471;-83
2021/07/31 11:25:23;;;;;;;5.43;1.50;;;23.60;99.90;;;;;;5053417;28;20481;-83
2021/07/31 11:28:02;;;;;;;2.63;1.40;;;23.80;99.90;;;;;;5053639;28;20458;-83
2021/07/31 11:30:40;;;;;;;4.13;1.40;;;23.90;99.90;;;;;;5056057;28;20446;-83
2021/07/31 11:33:17;;;;;;;4.73;1.73;;;23.80;99.90;;;;;;5055705;28;20459;-81
2021/07/31 11:35:44;;;;;;;1.50;1.10;;;23.60;99.90;;;;;;5055227;28;20526;-83
2021/07/31 11:38:32;;;;;;;3.67;1.57;;;23.50;99.90;;;;;;5055227;28;20434;-82
2021/07/31 11:41:00;;;;;;;1.47;1.23;;;23.50;99.90;;;;;;5057118;28;20506;-81
2021/07/31 11:43:29;;;;;;;16.07;1.63;;;23.40;99.90;;;;;;5074057;22;20486;-83
2021/07/31 11:45:56;;;;;;;3.83;1.20;;;23.10;99.90;;;;;;5037294;28;20500;-81
2021/07/31 11:48:23;;;;;;;1.97;1.03;;;23.20;99.90;;;;;;5042859;28;20482;-83
2021/07/31 11:51:03;;;;;;;2.17;1.00;;;23.20;99.90;;;;;;5038437;28;20473;-83
2021/07/31 11:53:30;;;;;;;3.87;1.40;;;23.20;99.90;;;;;;5051421;28;20469;-81
2021/07/31 11:56:18;;;;;;;2.40;1.83;;;22.90;99.90;;;;;;5050736;28;20439;-80
2021/07/31 11:58:47;;;;;;;1.20;1.10;;;23.10;99.90;;;;;;5040297;28;20439;-80
2021/07/31 12:01:16;;;;;;;2.10;1.17;;;23.10;99.90;;;;;;5038399;28;20458;-81
2021/07/31 12:03:45;;;;;;;2.63;1.27;;;23.10;99.90;;;;;;5037567;28;20981;-83
2021/07/31 12:06:38;;;;;;;3.57;1.20;;;23.40;99.90;;;;;;5037325;28;20499;-82
2021/07/31 12:09:07;;;;;;;1.60;1.50;;;23.40;99.90;;;;;;5037672;28;20544;-82
2021/07/31 12:11:38;;;;;;;2.73;1.50;;;23.40;99.90;;;;;;5037386;28;20451;-82
2021/07/31 12:14:30;;;;;;;2.00;1.50;;;23.40;99.90;;;;;;5038849;28;20475;-82
2021/07/31 12:17:11;;;;;;;3.00;1.40;;;23.40;99.90;;;;;;5041186;28;20443;-82
2021/07/31 12:19:40;;;;;;;1.87;1.07;;;23.60;99.90;;;;;;5041204;28;20853;-82
2021/07/31 12:22:08;;;;;;;5.40;1.70;;;23.60;99.90;;;;;;5047289;28;20443;-81
2021/07/31 12:24:35;;;;;;;5.27;1.40;;;23.60;99.90;;;;;;5049885;28;20533;-81
2021/07/31 12:27:01;;;;;;;2.30;1.47;;;23.60;99.90;;;;;;5052806;28;20952;-81
2021/07/31 12:29:33;;;;;;;1.47;1.30;;;23.60;99.90;;;;;;5057090;28;20475;-80
2021/07/31 12:32:22;;;;;;;3.53;2.33;;;23.40;99.90;;;;;;5058662;28;20439;-82
2021/07/31 12:34:49;;;;;;;2.53;2.33;;;23.50;99.90;;;;;;5054343;28;20451;-81
2021/07/31 12:37:16;;;;;;;2.00;1.77;;;23.50;99.90;;;;;;5058443;28;20462;-82
2021/07/31 12:39:42;;;;;;;5.93;1.43;;;23.50;99.90;;;;;;5058835;28;20458;-81
2021/07/31 12:42:10;;;;;;;2.27;1.70;;;23.50;99.90;;;;;;5058149;28;20443;-82
2021/07/31 12:44:39;;;;;;;3.03;1.48;;;23.60;99.90;;;;;;5055295;28;20497;-81
2021/07/31 12:47:06;;;;;;;3.23;1.10;;;23.70;99.90;;;;;;5059740;28;20188;-80
2021/07/31 12:49:34;;;;;;;1.83;1.40;;;23.70;99.90;;;;;;5050590;28;20476;-82
2021/07/31 12:52:01;;;;;;;2.53;1.40;;;23.90;99.90;;;;;;5047428;28;20452;-82
2021/07/31 12:54:28;;;;;;;1.17;1.10;;;23.90;99.90;;;;;;5045990;28;20470;-83
2021/07/31 12:56:54;;;;;;;4.70;1.23;;;23.80;99.90;;;;;;5045525;28;20454;-82